Time;durP1;ratioP1;P1;durP2;ratioP2;P2;SDS_P1;SDS_P2;PMS_P1;PMS_P2;Temp;Humidity;BMP_temperature;BMP_pressure;BME280_temperature;BME280_humidity;BME280_pressure;Samples;Min_cycle;Max_cycle;Signal;HPM_P1;HPM_P2
2022/11/27 00:02:21;;;;;;;;;;;8.90;99.90;;;;;;7338381;19;110653;-71
2022/11/27 00:04:48;;;;;;;;;;;8.90;99.90;;;;;;7346124;19;108765;-71
2022/11/27 00:07:15;;;;;;;;;;;8.90;99.90;;;;;;7342316;19;108787;-72
2022/11/27 00:09:42;;;;;;;;;;;8.90;99.90;;;;;;7342009;19;110441;-70
2022/11/27 00:12:09;;;;;;;;;;;8.90;99.90;;;;;;7348910;19;108811;-71
2022/11/27 00:14:36;;;;;;;;;;;8.90;99.90;;;;;;7341909;19;111036;-71
2022/11/27 00:17:03;;;;;;;;;;;8.80;99.90;;;;;;7341099;19;109228;-71
2022/11/27 00:19:30;;;;;;;;;;;8.70;99.90;;;;;;7339742;19;108945;-70
2022/11/27 00:21:56;;;;;;;;;;;8.60;99.90;;;;;;7342107;19;109185;-71
2022/11/27 00:24:24;;;;;;;;;;;8.60;99.90;;;;;;7335923;19;109007;-71
2022/11/27 00:26:50;;;;;;;;;;;8.70;99.90;;;;;;7340407;19;108744;-71
2022/11/27 00:29:17;;;;;;;;;;;8.60;99.90;;;;;;7335587;19;109293;-71
2022/11/27 00:31:44;;;;;;;;;;;8.50;99.90;;;;;;7343900;19;109133;-70
2022/11/27 00:34:11;;;;;;;;;;;8.50;99.90;;;;;;7347802;19;112799;-70
2022/11/27 00:36:38;;;;;;;;;;;8.50;99.90;;;;;;7344577;19;108973;-71
2022/11/27 00:39:12;;;;;;;;;;;8.50;99.90;;;;;;7341968;19;108189;-71
2022/11/27 00:41:39;;;;;;;;;;;8.40;99.90;;;;;;7341956;19;112751;-70
2022/11/27 00:44:06;;;;;;;;;;;8.40;99.90;;;;;;7341842;19;108640;-70
2022/11/27 00:46:33;;;;;;;;;;;8.30;99.90;;;;;;7342509;19;108680;-70
2022/11/27 00:49:01;;;;;;;;;;;8.20;99.90;;;;;;7341813;19;110402;-70
2022/11/27 00:51:28;;;;;;;;;;;8.20;99.90;;;;;;7341349;19;108766;-70
2022/11/27 00:53:55;;;;;;;;;;;8.10;99.90;;;;;;7337700;19;109223;-72
2022/11/27 00:56:26;;;;;;;;;;;8.10;99.90;;;;;;7342660;19;110622;-71
2022/11/27 00:58:53;;;;;;;;;;;8.10;99.90;;;;;;7341140;19;109331;-71
2022/11/27 01:01:22;;;;;;;;;;;8.10;99.90;;;;;;7340815;19;110302;-71
2022/11/27 01:03:49;;;;;;;;;;;8.10;99.90;;;;;;7342231;19;111160;-71
2022/11/27 01:06:16;;;;;;;;;;;8.10;99.90;;;;;;7341187;19;109080;-70
2022/11/27 01:08:43;;;;;;;;;;;8.20;99.90;;;;;;7340785;19;110161;-71
2022/11/27 01:11:12;;;;;;;;;;;8.20;99.90;;;;;;7341887;19;108837;-79
2022/11/27 01:13:39;;;;;;;;;;;8.20;99.90;;;;;;7340527;19;109241;-75
2022/11/27 01:16:08;;;;;;;;;;;8.30;99.90;;;;;;7340590;19;110924;-74
2022/11/27 01:18:36;;;;;;;;;;;8.20;99.90;;;;;;7344395;19;108774;-77
2022/11/27 01:21:03;;;;;;;;;;;8.20;99.90;;;;;;7338768;19;112155;-75
2022/11/27 01:23:30;;;;;;;;;;;8.20;99.90;;;;;;7339987;19;108436;-76
2022/11/27 01:26:01;;;;;;;;;;;8.30;99.90;;;;;;7341265;19;109295;-78
2022/11/27 01:28:28;;;;;;;;;;;8.20;99.90;;;;;;7339370;19;110196;-76
2022/11/27 01:30:55;;;;;;;;;;;8.20;99.90;;;;;;7335157;19;108788;-78
2022/11/27 01:33:22;;;;;;;;;;;8.20;99.90;;;;;;7332566;19;109892;-79
2022/11/27 01:35:59;;;;;;;;;;;8.30;99.90;;;;;;7337250;19;110677;-77
2022/11/27 01:38:28;;;;;;;;;;;8.30;99.90;;;;;;7339853;19;108508;-77
2022/11/27 01:41:03;;;;;;;;;;;8.30;99.90;;;;;;7345077;19;109166;-72
2022/11/27 01:43:39;;;;;;;;;;;8.30;99.90;;;;;;7336122;19;108572;-71
2022/11/27 01:46:23;;;;;;;;;;;8.30;99.90;;;;;;7340044;19;109180;-71
2022/11/27 01:48:51;;;;;;;;;;;8.40;99.90;;;;;;7337850;19;110306;-71
2022/11/27 01:51:19;;;;;;;;;;;8.40;99.90;;;;;;7340165;19;109347;-72
2022/11/27 01:53:46;;;;;;;;;;;8.30;99.90;;;;;;7340283;19;109481;-71
2022/11/27 01:56:13;;;;;;;;;;;8.30;99.90;;;;;;7339472;19;110447;-71
2022/11/27 01:58:40;;;;;;;;;;;8.30;99.90;;;;;;7337194;19;109673;-71
2022/11/27 02:01:07;;;;;;;;;;;8.20;99.90;;;;;;7340905;19;108589;-71
2022/11/27 02:03:34;;;;;;;;;;;8.20;99.90;;;;;;7337359;19;110325;-71
2022/11/27 02:06:12;;;;;;;;;;;8.20;99.90;;;;;;7369886;19;109018;-71
2022/11/27 02:08:39;;;;;;;;;;;8.10;99.90;;;;;;7371168;19;108694;-71
2022/11/27 02:11:15;;;;;;;;;;;8.20;99.90;;;;;;7373512;19;108789;-71
2022/11/27 02:13:48;;;;;;;;;;;8.10;99.90;;;;;;7372939;19;109239;-71
2022/11/27 02:16:15;;;;;;;;;;;8.20;99.90;;;;;;7372802;19;108709;-71
2022/11/27 02:18:50;;;;;;;;;;;8.20;99.90;;;;;;7373992;19;109262;-71
2022/11/27 02:21:35;;;;;;;;;;;8.10;99.90;;;;;;7370514;19;110408;-71
2022/11/27 02:24:05;;;;;;;;;;;8.10;99.90;;;;;;7368173;19;108935;-71
2022/11/27 02:26:40;;;;;;;;;;;8.10;99.90;;;;;;7378034;19;109473;-71
2022/11/27 02:29:15;;;;;;;;;;;8.10;99.90;;;;;;7370451;19;109379;-71
2022/11/27 02:31:42;;;;;;;;;;;8.10;99.90;;;;;;7374355;19;111833;-71
2022/11/27 02:34:14;;;;;;;;;;;8.10;99.90;;;;;;7370970;19;111270;-71
2022/11/27 02:36:45;;;;;;;;;;;8.10;99.90;;;;;;7372778;19;108669;-71
2022/11/27 02:39:15;;;;;;;;;;;8.20;99.90;;;;;;7372541;19;110139;-71
2022/11/27 02:41:51;;;;;;;;;;;8.20;99.90;;;;;;7373315;19;110700;-71
2022/11/27 02:44:19;;;;;;;;;;;8.20;99.90;;;;;;7370719;19;109930;-73
2022/11/27 02:46:47;;;;;;;;;;;8.20;99.90;;;;;;7372820;19;109643;-71
2022/11/27 02:49:15;;;;;;;;;;;8.20;99.90;;;;;;7375755;19;111596;-72
2022/11/27 02:51:45;;;;;;;;;;;8.20;99.90;;;;;;7370365;19;108589;-72
2022/11/27 02:54:13;;;;;;;;;;;8.20;99.90;;;;;;7369121;19;110329;-71
2022/11/27 02:56:41;;;;;;;;;;;8.20;99.90;;;;;;7369251;19;108940;-71
2022/11/27 02:59:11;;;;;;;;;;;8.20;99.90;;;;;;7372324;19;109214;-70
2022/11/27 03:01:41;;;;;;;;;;;8.20;99.90;;;;;;7372978;19;113519;-69
2022/11/27 03:04:11;;;;;;;;;;;8.20;99.90;;;;;;7371890;19;108850;-69
2022/11/27 03:06:43;;;;;;;;;;;8.20;99.90;;;;;;7371354;19;109488;-69
2022/11/27 03:09:15;;;;;;;;;;;8.20;99.90;;;;;;7369449;19;109059;-71
2022/11/27 03:11:43;;;;;;;;;;;8.20;99.90;;;;;;7375187;19;108759;-69
2022/11/27 03:14:11;;;;;;;;;;;8.20;99.90;;;;;;7370760;19;110395;-69
2022/11/27 03:16:56;;;;;;;;;;;8.20;99.90;;;;;;7352885;19;108497;-69
2022/11/27 03:19:26;;;;;;;;;;;8.20;99.90;;;;;;7337585;19;109700;-70
2022/11/27 03:21:57;;;;;;;;;;;8.20;99.90;;;;;;7340338;19;110388;-70
2022/11/27 03:24:25;;;;;;;;;;;8.20;99.90;;;;;;7341394;19;108858;-70
2022/11/27 03:26:52;;;;;;;;;;;8.20;99.90;;;;;;7342072;19;111447;-70
2022/11/27 03:29:21;;;;;;;;;;;8.10;99.90;;;;;;7340465;19;110239;-70
2022/11/27 03:31:48;;;;;;;;;;;8.20;99.90;;;;;;7342138;19;112027;-69
2022/11/27 03:34:15;;;;;;;;;;;8.20;99.90;;;;;;7343970;19;109224;-69
2022/11/27 03:36:42;;;;;;;;;;;8.20;99.90;;;;;;7343872;19;108385;-69
2022/11/27 03:39:09;;;;;;;;;;;8.20;99.90;;;;;;7343254;19;109211;-70
2022/11/27 03:41:55;;;;;;;;;;;8.20;99.90;;;;;;7337761;19;110241;-70
2022/11/27 03:44:31;;;;;;;;;;;8.30;99.90;;;;;;7340855;19;108322;-70
2022/11/27 03:47:16;;;;;;;;;;;8.30;99.90;;;;;;7342063;19;109372;-70
2022/11/27 03:49:46;;;;;;;;;;;8.40;99.90;;;;;;7341979;19;110444;-71
2022/11/27 03:52:16;;;;;;;;;;;8.40;99.90;;;;;;7339188;19;109442;-71
2022/11/27 03:54:49;;;;;;;;;;;8.50;99.90;;;;;;7342091;19;109121;-71
2022/11/27 03:57:18;;;;;;;;;;;8.50;99.90;;;;;;7346262;19;110471;-71
2022/11/27 03:59:46;;;;;;;;;;;8.60;99.90;;;;;;7341494;19;110109;-71
2022/11/27 04:02:14;;;;;;;;;;;8.50;99.90;;;;;;7339128;19;113412;-70
2022/11/27 04:04:41;;;;;;;;;;;8.50;99.90;;;;;;7341667;19;109156;-70
2022/11/27 04:07:14;;;;;;;;;;;8.40;99.90;;;;;;7341745;19;108755;-70
2022/11/27 04:09:41;;;;;;;;;;;8.40;99.90;;;;;;7341477;19;109161;-70
2022/11/27 04:12:08;;;;;;;;;;;8.40;99.90;;;;;;7341968;19;109150;-70
2022/11/27 04:14:35;;;;;;;;;;;8.40;99.90;;;;;;7338415;19;109251;-70
2022/11/27 04:17:02;;;;;;;;;;;8.40;99.90;;;;;;7340422;19;110315;-71
2022/11/27 04:19:28;;;;;;;;;;;8.40;99.90;;;;;;7344850;19;109060;-71
2022/11/27 04:21:55;;;;;;;;;;;8.50;99.90;;;;;;7336889;19;110367;-71
2022/11/27 04:24:22;;;;;;;;;;;8.60;99.90;;;;;;7340382;19;108724;-71
2022/11/27 04:26:49;;;;;;;;;;;8.60;99.90;;;;;;7339078;19;108518;-70
2022/11/27 04:29:16;;;;;;;;;;;8.70;99.90;;;;;;7334838;19;113105;-70
2022/11/27 04:31:43;;;;;;;;;;;8.60;99.90;;;;;;7340927;19;109297;-71
2022/11/27 04:34:10;;;;;;;;;;;8.60;99.90;;;;;;7341242;19;108531;-70
2022/11/27 04:36:37;;;;;;;;;;;8.60;99.90;;;;;;7338285;19;110329;-71
2022/11/27 04:39:05;;;;;;;;;;;8.60;99.90;;;;;;7347123;19;108407;-71
2022/11/27 04:41:32;;;;;;;;;;;8.50;99.90;;;;;;7337613;19;110157;-71
2022/11/27 04:43:59;;;;;;;;;;;8.50;99.90;;;;;;7338822;19;109178;-71
2022/11/27 04:46:26;;;;;;;;;;;8.50;99.90;;;;;;7336904;19;108501;-71
2022/11/27 04:48:53;;;;;;;;;;;8.40;99.90;;;;;;7339315;19;109554;-71
2022/11/27 04:51:19;;;;;;;;;;;8.50;99.90;;;;;;7336408;19;108686;-71
2022/11/27 04:53:46;;;;;;;;;;;8.50;99.90;;;;;;7340465;19;108855;-71
2022/11/27 04:56:13;;;;;;;;;;;8.50;99.90;;;;;;7337559;19;109550;-71
2022/11/27 04:58:40;;;;;;;;;;;8.40;99.90;;;;;;7338981;19;109226;-71
2022/11/27 05:01:08;;;;;;;;;;;8.40;99.90;;;;;;7344339;19;108476;-70
2022/11/27 05:03:35;;;;;;;;;;;8.40;99.90;;;;;;7338440;19;108484;-70
2022/11/27 05:06:02;;;;;;;;;;;8.40;99.90;;;;;;7336507;19;111883;-70
2022/11/27 05:08:29;;;;;;;;;;;8.40;99.90;;;;;;7337641;19;110473;-70
2022/11/27 05:11:07;;;;;;;;;;;8.40;99.90;;;;;;7339138;19;109165;-70
2022/11/27 05:13:33;;;;;;;;;;;8.40;99.90;;;;;;7336465;19;109429;-71
2022/11/27 05:16:01;;;;;;;;;;;8.40;99.90;;;;;;7339039;19;110293;-71
2022/11/27 05:18:28;;;;;;;;;;;8.50;99.90;;;;;;7339264;19;108842;-70
2022/11/27 05:20:55;;;;;;;;;;;8.50;99.90;;;;;;7339583;19;109513;-71
2022/11/27 05:23:22;;;;;;;;;;;8.50;99.90;;;;;;7341242;19;109362;-70
2022/11/27 05:25:49;;;;;;;;;;;8.50;99.90;;;;;;7338231;19;109188;-70
2022/11/27 05:28:16;;;;;;;;;;;8.50;99.90;;;;;;7337696;19;111515;-70
2022/11/27 05:30:50;;;;;;;;;;;8.50;99.90;;;;;;7338069;19;108396;-71
2022/11/27 05:33:17;;;;;;;;;;;8.50;99.90;;;;;;7334086;19;109710;-70
2022/11/27 05:35:45;;;;;;;;;;;8.50;99.90;;;;;;7333113;19;110612;-70
2022/11/27 05:38:14;;;;;;;;;;;8.50;99.90;;;;;;7334015;19;108443;-70
2022/11/27 05:40:40;;;;;;;;;;;8.50;99.90;;;;;;7337502;19;109029;-70
2022/11/27 05:43:07;;;;;;;;;;;8.50;99.90;;;;;;7337806;19;110303;-70
2022/11/27 05:45:35;;;;;;;;;;;8.60;99.90;;;;;;7342769;19;109013;-71
2022/11/27 05:48:02;;;;;;;;;;;8.50;99.90;;;;;;7336298;19;109339;-70
2022/11/27 05:50:29;;;;;;;;;;;8.50;99.90;;;;;;7337953;19;108440;-70
2022/11/27 05:52:56;;;;;;;;;;;8.50;99.90;;;;;;7338413;19;109217;-71
2022/11/27 05:55:23;;;;;;;;;;;8.50;99.90;;;;;;7335906;19;109362;-71
2022/11/27 05:57:50;;;;;;;;;;;8.50;99.90;;;;;;7335913;19;108639;-70
2022/11/27 06:00:17;;;;;;;;;;;8.50;99.90;;;;;;7337758;19;109699;-71
2022/11/27 06:02:44;;;;;;;;;;;8.50;99.90;;;;;;7336406;19;112924;-70
2022/11/27 06:05:11;;;;;;;;;;;8.40;99.90;;;;;;7335362;19;108808;-70
2022/11/27 06:07:38;;;;;;;;;;;8.40;99.90;;;;;;7342971;19;110009;-70
2022/11/27 06:10:06;;;;;;;;;;;8.40;99.90;;;;;;7334632;19;109707;-70
2022/11/27 06:12:33;;;;;;;;;;;8.40;99.90;;;;;;7335479;19;109245;-70
2022/11/27 06:15:00;;;;;;;;;;;8.40;99.90;;;;;;7333994;19;110547;-70
2022/11/27 06:17:27;;;;;;;;;;;8.40;99.90;;;;;;7331839;19;108483;-70
2022/11/27 06:19:54;;;;;;;;;;;8.40;99.90;;;;;;7331871;19;109457;-70
2022/11/27 06:22:21;;;;;;;;;;;8.30;99.90;;;;;;7329933;19;110265;-70
2022/11/27 06:24:47;;;;;;;;;;;8.30;99.90;;;;;;7328352;19;111867;-71
2022/11/27 06:27:15;;;;;;;;;;;8.30;99.90;;;;;;7334645;19;110419;-70
2022/11/27 06:29:42;;;;;;;;;;;8.40;99.90;;;;;;7333278;19;109968;-70
2022/11/27 06:32:08;;;;;;;;;;;8.40;99.90;;;;;;7335067;19;108725;-70
2022/11/27 06:34:35;;;;;;;;;;;8.40;99.90;;;;;;7332323;19;111505;-72
2022/11/27 06:37:03;;;;;;;;;;;8.30;99.90;;;;;;7335324;19;109131;-68
2022/11/27 06:39:32;;;;;;;;;;;8.40;99.90;;;;;;7335335;19;109377;-68
2022/11/27 06:41:59;;;;;;;;;;;8.40;99.90;;;;;;7335382;19;109733;-69
2022/11/27 06:44:26;;;;;;;;;;;8.40;99.90;;;;;;7333832;19;108331;-68
2022/11/27 06:46:53;;;;;;;;;;;8.40;99.90;;;;;;7334041;19;113911;-69
2022/11/27 06:49:20;;;;;;;;;;;8.40;99.90;;;;;;7336571;19;109363;-70
2022/11/27 06:51:47;;;;;;;;;;;8.40;99.90;;;;;;7338248;19;109748;-69
2022/11/27 06:54:14;;;;;;;;;;;8.40;99.90;;;;;;7340278;19;109693;-69
2022/11/27 06:56:41;;;;;;;;;;;8.50;99.90;;;;;;7342577;19;108642;-69
2022/11/27 06:59:10;;;;;;;;;;;8.50;99.90;;;;;;7342643;19;113112;-69
2022/11/27 07:01:37;;;;;;;;;;;8.60;99.90;;;;;;7341159;19;110217;-69
2022/11/27 07:04:04;;;;;;;;;;;8.60;99.90;;;;;;7342138;19;108781;-69
2022/11/27 07:06:31;;;;;;;;;;;8.60;99.90;;;;;;7342802;19;109401;-69
2022/11/27 07:08:58;;;;;;;;;;;8.70;99.90;;;;;;7337476;19;110518;-69
2022/11/27 07:11:26;;;;;;;;;;;8.60;99.90;;;;;;7345111;19;108570;-69
2022/11/27 07:13:54;;;;;;;;;;;8.60;99.90;;;;;;7335898;19;111686;-70
2022/11/27 07:16:21;;;;;;;;;;;8.60;99.90;;;;;;7340549;19;109053;-69
2022/11/27 07:18:49;;;;;;;;;;;8.50;99.90;;;;;;7343457;19;109794;-69
2022/11/27 07:21:16;;;;;;;;;;;8.50;99.90;;;;;;7341917;19;113486;-69
2022/11/27 07:23:42;;;;;;;;;;;8.50;99.90;;;;;;7342142;19;109746;-69
2022/11/27 07:26:11;;;;;;;;;;;8.50;99.90;;;;;;7341146;19;109093;-69
2022/11/27 07:28:37;;;;;;;;;;;8.60;99.90;;;;;;7340719;19;110645;-69
2022/11/27 07:31:04;;;;;;;;;;;8.60;99.90;;;;;;7343081;19;110261;-69
2022/11/27 07:33:31;;;;;;;;;;;8.60;99.90;;;;;;7345017;19;109035;-69
2022/11/27 07:36:00;;;;;;;;;;;8.60;99.90;;;;;;7342151;19;109107;-69
2022/11/27 07:38:27;;;;;;;;;;;8.70;99.90;;;;;;7343624;19;111373;-69
2022/11/27 07:40:53;;;;;;;;;;;8.70;99.90;;;;;;7340836;19;110278;-69
2022/11/27 07:43:20;;;;;;;;;;;8.80;99.90;;;;;;7341679;19;108329;-69
2022/11/27 07:45:47;;;;;;;;;;;8.80;99.90;;;;;;7340350;19;108316;-69
2022/11/27 07:48:14;;;;;;;;;;;8.80;99.90;;;;;;7340302;19;113875;-69
2022/11/27 07:50:41;;;;;;;;;;;8.80;99.90;;;;;;7341473;19;108899;-69
2022/11/27 07:53:08;;;;;;;;;;;8.80;99.90;;;;;;7339024;19;112962;-69
2022/11/27 07:55:38;;;;;;;;;;;8.80;99.90;;;;;;7344484;19;109129;-69
2022/11/27 07:58:05;;;;;;;;;;;8.80;99.90;;;;;;7341089;19;109517;-70
2022/11/27 08:00:33;;;;;;;;;;;8.90;99.90;;;;;;7339242;19;111196;-69
2022/11/27 08:03:00;;;;;;;;;;;8.90;99.90;;;;;;7341323;19;108402;-69
2022/11/27 08:05:28;;;;;;;;;;;8.90;99.90;;;;;;7339717;19;108587;-69
2022/11/27 08:07:54;;;;;;;;;;;8.90;99.90;;;;;;7340801;19;110715;-69
2022/11/27 08:10:21;;;;;;;;;;;9.00;99.90;;;;;;7339218;19;108797;-69
2022/11/27 08:12:48;;;;;;;;;;;9.00;99.90;;;;;;7340801;19;109134;-69
2022/11/27 08:15:15;;;;;;;;;;;9.10;99.90;;;;;;7338824;19;110323;-69
2022/11/27 08:17:42;;;;;;;;;;;9.10;99.90;;;;;;7346027;19;108392;-69
2022/11/27 08:20:09;;;;;;;;;;;9.10;99.90;;;;;;7341857;19;109003;-69
2022/11/27 08:22:36;;;;;;;;;;;9.20;99.90;;;;;;7337073;19;109377;-69
2022/11/27 08:25:03;;;;;;;;;;;9.10;99.90;;;;;;7339993;19;109193;-72
2022/11/27 08:27:31;;;;;;;;;;;9.00;99.90;;;;;;7338895;19;110330;-69
2022/11/27 08:29:59;;;;;;;;;;;9.00;99.90;;;;;;7338296;19;109533;-69
2022/11/27 08:32:26;;;;;;;;;;;8.90;99.90;;;;;;7337079;19;109516;-69
2022/11/27 08:34:52;;;;;;;;;;;8.90;99.90;;;;;;7339158;19;110659;-69
2022/11/27 08:37:20;;;;;;;;;;;8.90;99.90;;;;;;7344546;19;108445;-68
2022/11/27 08:39:47;;;;;;;;;;;8.90;99.90;;;;;;7339283;19;110698;-69
2022/11/27 08:42:14;;;;;;;;;;;8.90;99.90;;;;;;7337481;19;109613;-68
2022/11/27 08:44:41;;;;;;;;;;;8.90;99.90;;;;;;7338489;19;109407;-69
2022/11/27 08:47:08;;;;;;;;;;;8.90;99.90;;;;;;7339212;19;110422;-69
2022/11/27 08:49:35;;;;;;;;;;;8.90;99.90;;;;;;7338388;19;109297;-69
2022/11/27 08:52:08;;;;;;;;;;;8.90;99.90;;;;;;7338793;19;109532;-69
2022/11/27 08:54:35;;;;;;;;;;;8.90;99.90;;;;;;7337740;19;109822;-70
2022/11/27 08:57:02;;;;;;;;;;;8.90;99.90;;;;;;7337931;19;109379;-69
2022/11/27 08:59:29;;;;;;;;;;;8.90;99.90;;;;;;7343061;19;109600;-70
2022/11/27 09:01:56;;;;;;;;;;;9.00;99.90;;;;;;7333693;19;109962;-69
2022/11/27 09:04:23;;;;;;;;;;;8.90;99.90;;;;;;7337747;19;109576;-70
2022/11/27 09:06:50;;;;;;;;;;;8.90;99.90;;;;;;7339361;19;110597;-69
2022/11/27 09:09:23;;;;;;;;;;;8.90;99.90;;;;;;7337025;19;108789;-70
2022/11/27 09:11:52;;;;;;;;;;;9.00;99.90;;;;;;7340399;19;109199;-69
2022/11/27 09:14:19;;;;;;;;;;;9.00;99.90;;;;;;7335829;19;110245;-70
2022/11/27 09:16:46;;;;;;;;;;;9.00;99.90;;;;;;7341107;19;108724;-69
2022/11/27 09:19:13;;;;;;;;;;;9.10;99.90;;;;;;7338443;19;112049;-70
2022/11/27 09:21:41;;;;;;;;;;;9.10;99.90;;;;;;7343538;19;110628;-69
2022/11/27 09:24:08;;;;;;;;;;;9.10;99.90;;;;;;7339709;19;111548;-70
2022/11/27 09:26:35;;;;;;;;;;;9.10;99.90;;;;;;7337793;19;110398;-70
2022/11/27 09:29:02;;;;;;;;;;;9.10;99.90;;;;;;7338134;19;108858;-70
2022/11/27 09:31:29;;;;;;;;;;;9.10;99.90;;;;;;7336435;19;109154;-69
2022/11/27 09:33:56;;;;;;;;;;;9.10;99.90;;;;;;7336637;19;110372;-70
2022/11/27 09:36:24;;;;;;;;;;;9.10;99.90;;;;;;7338964;19;109118;-69
2022/11/27 09:38:51;;;;;;;;;;;9.10;99.90;;;;;;7338547;19;110530;-70
2022/11/27 09:41:18;;;;;;;;;;;9.20;99.90;;;;;;7332210;19;111744;-70
2022/11/27 09:43:55;;;;;;;;;;;9.20;99.90;;;;;;7341389;19;108710;-69
2022/11/27 09:46:28;;;;;;;;;;;9.20;99.90;;;;;;7336003;19;113467;-70
2022/11/27 09:48:56;;;;;;;;;;;9.20;99.90;;;;;;7337357;19;108390;-70
2022/11/27 09:51:37;;;;;;;;;;;9.20;99.90;;;;;;7339329;19;109486;-69
2022/11/27 09:54:14;;;;;;;;;;;9.20;99.90;;;;;;7339974;19;109057;-69
2022/11/27 09:56:41;;;;;;;;;;;9.20;99.90;;;;;;7339414;19;108540;-69
2022/11/27 09:59:13;;;;;;;;;;;9.20;99.90;;;;;;7339129;19;110010;-69
2022/11/27 10:01:40;;;;;;;;;;;9.20;99.90;;;;;;7339384;19;110473;-69
2022/11/27 10:04:17;;;;;;;;;;;9.20;99.90;;;;;;7338913;19;108777;-69
2022/11/27 10:06:57;;;;;;;;;;;9.20;99.90;;;;;;7342674;19;109360;-69
2022/11/27 10:09:42;;;;;;;;;;;9.20;99.90;;;;;;7339560;19;108853;-69
2022/11/27 10:12:09;;;;;;;;;;;9.30;99.90;;;;;;7338132;19;109593;-69
2022/11/27 10:14:39;;;;;;;;;;;9.30;99.90;;;;;;7334649;19;109513;-69
2022/11/27 10:17:11;;;;;;;;;;;9.30;99.90;;;;;;7331667;19;109175;-69
2022/11/27 10:19:45;;;;;;;;;;;9.30;99.90;;;;;;7337291;19;108819;-69
2022/11/27 10:22:16;;;;;;;;;;;9.40;99.90;;;;;;7336783;19;110195;-70
2022/11/27 10:24:52;;;;;;;;;;;9.30;99.90;;;;;;7337608;19;109471;-69
2022/11/27 10:27:24;;;;;;;;;;;9.30;99.90;;;;;;7341585;19;108776;-69
2022/11/27 10:29:54;;;;;;;;;;;9.40;99.90;;;;;;7350344;19;110795;-69
2022/11/27 10:32:24;;;;;;;;;;;9.40;99.90;;;;;;7343833;19;108582;-69
2022/11/27 10:35:12;;;;;;;;;;;9.40;99.90;;;;;;7343394;19;110134;-69
2022/11/27 10:37:42;;;;;;;;;;;9.40;99.90;;;;;;7346119;19;109120;-69
2022/11/27 10:40:08;;;;;;;;;;;9.40;99.90;;;;;;7345078;19;110333;-69
2022/11/27 10:42:39;;;;;;;;;;;9.50;99.90;;;;;;7343444;19;110249;-71
2022/11/27 10:45:15;;;;;;;;;;;9.50;99.90;;;;;;7341358;19;109920;-69
2022/11/27 10:47:45;;;;;;;;;;;9.60;99.90;;;;;;7341982;19;109573;-69
2022/11/27 10:50:15;;;;;;;;;;;9.60;99.90;;;;;;7344064;19;110312;-70
2022/11/27 10:53:05;;;;;;;;;;;9.60;99.90;;;;;;7341465;19;110007;-69
2022/11/27 10:55:50;;;;;;;;;;;9.60;99.90;;;;;;7340156;19;109971;-68
2022/11/27 10:58:29;;;;;;;;;;;9.60;99.90;;;;;;7337706;19;111011;-69
2022/11/27 11:01:02;;;;;;;;;;;9.60;99.90;;;;;;7339653;19;111451;-68
2022/11/27 11:03:29;;;;;;;;;;;9.70;99.90;;;;;;7338075;19;112571;-68
2022/11/27 11:05:58;;;;;;;;;;;9.70;99.90;;;;;;7338952;19;109949;-69
2022/11/27 11:08:45;;;;;;;;;;;9.70;99.90;;;;;;7339706;19;109029;-69
2022/11/27 11:11:12;;;;;;;;;;;9.80;99.90;;;;;;7335640;19;109661;-68
2022/11/27 11:13:39;;;;;;;;;;;9.80;99.90;;;;;;7343347;19;108471;-68
2022/11/27 11:16:06;;;;;;;;;;;9.80;99.90;;;;;;7337215;19;109616;-69
2022/11/27 11:18:49;;;;;;;;;;;9.90;99.90;;;;;;7339087;19;108318;-69
2022/11/27 11:21:15;;;;;;;;;;;9.90;99.90;;;;;;7340544;19;109215;-69
2022/11/27 11:23:45;;;;;;;;;;;9.90;99.90;;;;;;7343804;19;110337;-69
2022/11/27 11:26:23;;;;;;;;;;;10.00;99.90;;;;;;7342903;19;109119;-69
2022/11/27 11:28:51;;;;;;;;;;;10.00;99.90;;;;;;7340105;19;113485;-69
2022/11/27 11:31:21;;;;;;;;;;;10.10;99.90;;;;;;7338699;19;110739;-69
2022/11/27 11:33:49;;;;;;;;;;;10.00;99.90;;;;;;7342377;19;108378;-69
2022/11/27 11:36:16;;;;;;;;;;;10.00;99.90;;;;;;7343030;19;109202;-70
2022/11/27 11:38:45;;;;;;;;;;;10.00;99.90;;;;;;7340645;19;109894;-70
2022/11/27 11:41:12;;;;;;;;;;;10.00;99.90;;;;;;7343390;19;109551;-70
2022/11/27 11:43:40;;;;;;;;;;;10.00;99.90;;;;;;7342666;19;111330;-69
2022/11/27 11:46:21;;;;;;;;;;;10.00;99.90;;;;;;7337277;19;108837;-69
2022/11/27 11:48:55;;;;;;;;;;;10.00;99.90;;;;;;7340409;19;108769;-68
2022/11/27 11:51:29;;;;;;;;;;;10.00;99.90;;;;;;7338997;19;109156;-68
2022/11/27 11:54:04;;;;;;;;;;;10.00;99.90;;;;;;7341056;19;110843;-69
2022/11/27 11:56:32;;;;;;;;;;;10.10;99.90;;;;;;7340038;19;109183;-68
2022/11/27 11:59:01;;;;;;;;;;;10.10;99.90;;;;;;7346092;19;110860;-69
2022/11/27 12:01:37;;;;;;;;;;;10.10;99.90;;;;;;7341128;19;109465;-69
2022/11/27 12:04:10;;;;;;;;;;;10.10;99.90;;;;;;7341270;19;109285;-69
2022/11/27 12:06:37;;;;;;;;;;;10.10;99.90;;;;;;7341560;19;108481;-69
2022/11/27 12:09:16;;;;;;;;;;;10.10;99.90;;;;;;7340878;19;109375;-69
2022/11/27 12:12:02;;;;;;;;;;;10.20;99.90;;;;;;7341170;19;110647;-68
2022/11/27 12:14:32;;;;;;;;;;;10.20;99.90;;;;;;7338258;19;109270;-74
2022/11/27 12:17:01;;;;;;;;;;;10.20;99.90;;;;;;7338475;19;109447;-73
2022/11/27 12:19:34;;;;;;;;;;;10.20;99.90;;;;;;7343325;19;110922;-71
2022/11/27 12:22:13;;;;;;;;;;;10.10;99.90;;;;;;7345543;19;108690;-69
2022/11/27 12:24:40;;;;;;;;;;;10.10;99.90;;;;;;7344243;19;111826;-70
2022/11/27 12:27:16;;;;;;;;;;;10.10;99.90;;;;;;7344941;19;108756;-71
2022/11/27 12:29:52;;;;;;;;;;;10.10;99.90;;;;;;7343112;19;109278;-69
2022/11/27 12:32:31;;;;;;;;;;;10.10;99.90;;;;;;7339523;19;110503;-70
2022/11/27 12:35:04;;;;;;;;;;;10.10;99.90;;;;;;7341684;19;108761;-69
2022/11/27 12:37:38;;;;;;;;;;;10.10;99.90;;;;;;7338931;19;108652;-69
2022/11/27 12:40:08;;;;;;;;;;;10.00;99.90;;;;;;7336459;19;111176;-72
2022/11/27 12:42:40;;;;;;;;;;;10.10;99.90;;;;;;7340978;19;109015;-69
2022/11/27 12:45:18;;;;;;;;;;;10.10;99.90;;;;;;7349927;19;109291;-69
2022/11/27 12:47:54;;;;;;;;;;;10.10;99.90;;;;;;7345478;19;108848;-75
2022/11/27 12:50:59;;;;;;;;;;;10.00;99.90;;;;;;7334044;19;110226;-77
2022/11/27 12:53:32;;;;;;;;;;;10.00;99.90;;;;;;7334759;19;110291;-75
2022/11/27 12:55:59;;;;;;;;;;;10.00;99.90;;;;;;7335379;19;109610;-78
2022/11/27 12:58:27;;;;;;;;;;;10.00;99.90;;;;;;7335548;19;109122;-79
2022/11/27 13:01:01;;;;;;;;;;;10.00;99.90;;;;;;7336401;19;115076;-71
2022/11/27 13:03:32;;;;;;;;;;;10.00;99.90;;;;;;7334280;19;108472;-79
2022/11/27 13:06:02;;;;;;;;;;;10.00;99.90;;;;;;7338408;19;108830;-69
2022/11/27 13:08:34;;;;;;;;;;;10.10;99.90;;;;;;7323290;19;109228;-70
2022/11/27 13:11:05;;;;;;;;;;;10.00;99.90;;;;;;7325756;19;110021;-70
2022/11/27 13:13:34;;;;;;;;;;;10.10;99.90;;;;;;7324289;19;109273;-69
2022/11/27 13:16:31;;;;;;;;;;;10.00;99.90;;;;;;7332511;19;109509;-69
2022/11/27 13:19:22;;;;;;;;;;;10.00;99.90;;;;;;7334998;19;109208;-69
2022/11/27 13:21:51;;;;;;;;;;;10.10;99.90;;;;;;7333297;19;109262;-69
2022/11/27 13:24:18;;;;;;;;;;;10.10;99.90;;;;;;7334675;19;108905;-69
2022/11/27 13:26:45;;;;;;;;;;;10.00;99.90;;;;;;7331686;19;110289;-69
2022/11/27 13:29:31;;;;;;;;;;;10.00;99.90;;;;;;7338483;19;110190;-69
2022/11/27 13:32:00;;;;;;;;;;;10.00;99.90;;;;;;7340178;19;110280;-69
2022/11/27 13:34:28;;;;;;;;;;;10.00;99.90;;;;;;7337205;19;109633;-69
2022/11/27 13:36:58;;;;;;;;;;;10.00;99.90;;;;;;7339367;19;108650;-69
2022/11/27 13:39:28;;;;;;;;;;;10.00;99.90;;;;;;7339187;19;112760;-69
2022/11/27 13:42:04;;;;;;;;;;;10.00;99.90;;;;;;7339324;19;110165;-74
2022/11/27 13:44:33;;;;;;;;;;;10.00;99.90;;;;;;7336428;19;108921;-69
2022/11/27 13:47:05;;;;;;;;;;;10.00;99.90;;;;;;7338948;19;109634;-70
2022/11/27 13:49:33;;;;;;;;;;;10.00;99.90;;;;;;7335426;19;110967;-69
2022/11/27 13:52:05;;;;;;;;;;;10.00;99.90;;;;;;7337508;19;109388;-69
2022/11/27 13:54:32;;;;;;;;;;;10.00;99.90;;;;;;7328543;19;109358;-69
2022/11/27 13:57:14;;;;;;;;;;;9.90;99.90;;;;;;7329581;19;109995;-69
2022/11/27 13:59:53;;;;;;;;;;;10.00;99.90;;;;;;7328267;19;109128;-69
2022/11/27 14:02:19;;;;;;;;;;;10.00;99.90;;;;;;7328641;19;109759;-69
2022/11/27 14:04:48;;;;;;;;;;;10.00;99.90;;;;;;7330145;19;108957;-69
2022/11/27 14:07:22;;;;;;;;;;;10.00;99.90;;;;;;7327079;19;108960;-70
2022/11/27 14:09:54;;;;;;;;;;;9.90;99.90;;;;;;7329232;19;110119;-69
2022/11/27 14:12:24;;;;;;;;;;;10.00;99.90;;;;;;7330768;19;109454;-69
2022/11/27 14:15:06;;;;;;;;;;;9.90;99.90;;;;;;7340834;19;109199;-69
2022/11/27 14:17:34;;;;;;;;;;;9.90;99.90;;;;;;7337366;19;108461;-69
2022/11/27 14:20:17;;;;;;;;;;;9.90;99.90;;;;;;7337984;19;109330;-69
2022/11/27 14:22:44;;;;;;;;;;;9.90;99.90;;;;;;7336686;19;109769;-69
2022/11/27 14:25:32;;;;;;;;;;;9.90;99.90;;;;;;7337425;19;108571;-69
2022/11/27 14:28:11;;;;;;;;;;;9.90;99.90;;;;;;7338481;19;110432;-69
2022/11/27 14:30:49;;;;;;;;;;;9.80;99.90;;;;;;7336902;19;111424;-69